createdAt,value
2023-03-23T16:08:54.001Z,21.50
2023-03-23T16:11:25.188Z,21.26
2023-03-23T16:13:53.478Z,21.05
2023-03-23T16:16:23.651Z,20.86
2023-03-23T16:18:52.286Z,20.64
2023-03-23T16:21:20.498Z,20.37
2023-03-23T16:23:48.853Z,20.13
2023-03-23T16:26:17.233Z,19.94
2023-03-23T16:28:45.726Z,19.76
2023-03-23T16:31:14.316Z,19.58
2023-03-23T16:33:42.695Z,19.41
2023-03-23T16:36:12.690Z,19.23
2023-03-23T16:38:49.014Z,19.09
2023-03-23T16:41:18.001Z,18.96
2023-03-23T16:43:46.074Z,18.84
2023-03-23T16:46:14.513Z,18.73
2023-03-23T16:48:43.126Z,18.62
2023-03-23T16:51:11.461Z,18.53
2023-03-23T16:53:39.596Z,18.44
2023-03-23T16:56:07.871Z,18.37
2023-03-23T16:58:36.354Z,18.28
2023-03-23T17:01:04.644Z,18.21
2023-03-23T17:03:32.836Z,18.15
2023-03-23T17:06:02.032Z,18.08
2023-03-23T17:08:30.410Z,18.02
2023-03-23T17:10:58.485Z,17.94
2023-03-23T17:13:28.197Z,17.85
2023-03-23T17:15:57.522Z,17.74
2023-03-23T17:18:26.608Z,17.65
2023-03-23T17:20:55.613Z,17.56
2023-03-23T17:23:24.551Z,17.45
2023-03-23T17:25:53.798Z,17.28
2023-03-23T17:28:22.868Z,17.09
2023-03-23T17:30:51.907Z,16.90
2023-03-23T17:33:20.081Z,16.72
2023-03-23T17:35:52.083Z,16.54
2023-03-23T17:38:21.232Z,16.37
2023-03-23T17:41:02.130Z,16.22
2023-03-23T17:43:30.612Z,16.06
2023-03-23T17:45:59.001Z,15.92
2023-03-23T17:48:27.483Z,15.75
2023-03-23T17:50:59.439Z,15.57
2023-03-23T17:53:27.617Z,15.45
2023-03-23T17:55:56.721Z,15.29
2023-03-23T17:58:26.605Z,15.16
2023-03-23T18:00:56.186Z,15.08
2023-03-23T18:03:24.790Z,14.96
2023-03-23T18:05:58.132Z,14.86
2023-03-23T18:08:38.350Z,14.71
2023-03-23T18:11:07.396Z,14.53
2023-03-23T18:13:36.589Z,14.39
2023-03-23T18:16:06.313Z,14.23
2023-03-23T18:18:35.607Z,14.16
2023-03-23T18:21:05.943Z,14.07
2023-03-23T18:23:39.046Z,14.01
2023-03-23T18:26:12.842Z,13.90
2023-03-23T18:28:43.559Z,13.80
2023-03-23T18:31:13.763Z,13.73
2023-03-23T18:33:45.258Z,13.64
2023-03-23T18:36:18.504Z,13.54
2023-03-23T18:38:47.789Z,13.49
2023-03-23T18:41:16.568Z,13.51
2023-03-23T18:43:45.143Z,13.61
2023-03-23T18:46:13.946Z,13.81
2023-03-23T18:48:42.322Z,13.99
2023-03-23T18:51:10.803Z,14.19
2023-03-23T18:53:38.890Z,14.37
2023-03-23T18:56:09.080Z,14.51
2023-03-23T18:58:37.908Z,14.63
2023-03-23T19:01:10.833Z,14.71
2023-03-23T19:03:39.731Z,14.77
2023-03-23T19:06:19.084Z,14.83
2023-03-23T19:08:47.827Z,14.88
2023-03-23T19:11:16.404Z,14.92
2023-03-23T19:13:58.477Z,14.94
2023-03-23T19:16:31.702Z,14.97
2023-03-23T19:19:01.976Z,14.99
2023-03-23T19:21:31.950Z,15.01
2023-03-23T19:24:01.770Z,15.01
2023-03-23T19:26:40.480Z,14.98
2023-03-23T19:31:46.661Z,14.94
2023-03-23T19:34:15.938Z,14.92
2023-03-23T19:36:54.299Z,14.88
2023-03-23T19:39:28.088Z,14.84
2023-03-23T19:41:56.373Z,14.81
2023-03-23T19:44:25.457Z,14.78
2023-03-23T19:46:54.516Z,14.75
2023-03-23T19:49:22.996Z,14.72
2023-03-23T19:52:05.077Z,14.70
2023-03-23T19:54:39.165Z,14.64
2023-03-23T19:57:08.233Z,14.61
2023-03-23T19:59:36.963Z,14.57
2023-03-23T20:02:06.203Z,14.54
2023-03-23T20:04:35.701Z,14.50
2023-03-23T20:07:07.783Z,14.47
2023-03-23T20:09:39.799Z,14.43
2023-03-23T20:12:08.086Z,14.41
2023-03-23T20:14:37.541Z,14.38
2023-03-23T20:17:10.006Z,14.36
2023-03-23T20:19:38.666Z,14.32
2023-03-23T20:22:07.520Z,14.30
2023-03-23T20:24:37.014Z,14.28
2023-03-23T20:27:06.490Z,14.24
2023-03-23T20:29:35.029Z,14.24
2023-03-23T20:32:03.772Z,14.21
2023-03-23T20:34:32.038Z,14.18
2023-03-23T20:37:02.041Z,14.14
2023-03-23T20:39:32.434Z,14.13
2023-03-23T20:42:06.052Z,14.10
2023-03-23T20:44:36.200Z,14.08
2023-03-23T20:47:05.023Z,14.05
2023-03-23T20:49:35.353Z,14.04
2023-03-23T20:52:04.750Z,14.01
2023-03-23T20:54:33.135Z,14.00
2023-03-23T20:57:02.162Z,13.94
2023-03-23T20:59:32.768Z,13.93
2023-03-23T21:02:00.947Z,13.90
2023-03-23T21:04:30.355Z,13.89
2023-03-23T21:06:58.740Z,13.88
2023-03-23T21:09:26.854Z,13.86
2023-03-23T21:11:55.477Z,13.84
2023-03-23T21:14:24.513Z,13.82
2023-03-23T21:16:52.895Z,13.79
2023-03-23T21:19:22.102Z,13.77
2023-03-23T21:21:55.754Z,13.75
2023-03-23T21:24:29.233Z,13.74
2023-03-23T21:26:58.514Z,13.73
2023-03-23T21:29:27.632Z,13.72
2023-03-23T21:34:28.359Z,13.67
2023-03-23T21:36:56.740Z,13.65
2023-03-23T21:39:26.400Z,13.63
2023-03-23T21:41:54.555Z,13.59
2023-03-23T21:44:23.499Z,13.58
2023-03-23T21:46:52.662Z,13.56
2023-03-23T21:49:21.324Z,13.55
2023-03-23T21:51:50.225Z,13.54
2023-03-23T21:54:21.161Z,13.55
2023-03-23T21:56:49.579Z,13.55
2023-03-23T21:59:18.028Z,13.54
2023-03-23T22:01:46.146Z,13.53
2023-03-23T22:04:14.402Z,13.50
2023-03-23T22:06:42.768Z,13.49
2023-03-23T22:09:11.069Z,13.46
2023-03-23T22:11:39.749Z,13.41
2023-03-23T22:14:08.875Z,13.39
2023-03-23T22:16:37.726Z,13.37
2023-03-23T22:19:06.894Z,13.33
2023-03-23T22:21:35.337Z,13.27
2023-03-23T22:24:03.638Z,13.20
2023-03-23T22:26:31.999Z,13.11
2023-03-23T22:29:01.102Z,13.02
2023-03-23T22:31:32.746Z,12.92
2023-03-23T22:34:01.786Z,12.85
2023-03-23T22:36:30.700Z,12.77
2023-03-23T22:38:59.246Z,12.68
2023-03-23T22:41:28.739Z,12.61
2023-03-23T22:43:57.443Z,12.53
2023-03-23T22:46:26.357Z,12.44
2023-03-23T22:48:55.021Z,12.33
2023-03-23T22:51:24.106Z,12.23
2023-03-23T22:53:52.313Z,12.13
2023-03-23T22:56:21.625Z,12.03
2023-03-23T22:58:50.004Z,11.91
2023-03-23T23:01:19.889Z,11.78
2023-03-23T23:03:48.775Z,11.64
2023-03-23T23:06:17.615Z,11.53
2023-03-23T23:08:46.986Z,11.45
2023-03-23T23:11:16.457Z,11.38
2023-03-23T23:13:44.912Z,11.34
2023-03-23T23:16:14.346Z,11.25
2023-03-23T23:18:43.841Z,11.19
2023-03-23T23:21:14.269Z,11.12
2023-03-23T23:23:42.645Z,11.05
2023-03-23T23:26:10.721Z,11.00
2023-03-23T23:28:38.906Z,10.95
2023-03-23T23:31:22.805Z,10.95
2023-03-23T23:33:51.130Z,10.92
2023-03-23T23:36:21.453Z,10.91
2023-03-23T23:38:49.637Z,10.89
2023-03-23T23:41:20.266Z,10.87
2023-03-23T23:43:48.758Z,10.85
2023-03-23T23:46:17.490Z,10.81
2023-03-23T23:48:49.000Z,10.75
2023-03-23T23:51:17.812Z,10.69
2023-03-23T23:53:53.594Z,10.66
2023-03-23T23:56:22.418Z,10.63
2023-03-23T23:58:51.861Z,10.59
